sensor_id;sensor_type;location;lat;lon;timestamp;P1;durP1;ratioP1;P2;durP2;ratioP2
47922;SDS011;33688;44.354;9.228;2023-02-15T00:01:20;4.45;;;4.05;;
47922;SDS011;33688;44.354;9.228;2023-02-15T00:03:47;5.20;;;4.20;;
47922;SDS011;33688;44.354;9.228;2023-02-15T00:06:14;4.60;;;4.20;;
47922;SDS011;33688;44.354;9.228;2023-02-15T00:08:41;4.70;;;4.30;;
47922;SDS011;33688;44.354;9.228;2023-02-15T00:11:10;5.00;;;4.28;;
47922;SDS011;33688;44.354;9.228;2023-02-15T00:13:42;4.70;;;4.20;;
47922;SDS011;33688;44.354;9.228;2023-02-15T00:16:11;4.70;;;4.07;;
47922;SDS011;33688;44.354;9.228;2023-02-15T00:18:38;4.60;;;4.15;;
47922;SDS011;33688;44.354;9.228;2023-02-15T00:21:08;4.90;;;4.40;;
47922;SDS011;33688;44.354;9.228;2023-02-15T00:23:35;4.57;;;4.18;;
47922;SDS011;33688;44.354;9.228;2023-02-15T00:26:08;4.75;;;4.22;;
47922;SDS011;33688;44.354;9.228;2023-02-15T00:28:37;4.07;;;3.72;;
47922;SDS011;33688;44.354;9.228;2023-02-15T00:31:07;4.70;;;4.22;;
47922;SDS011;33688;44.354;9.228;2023-02-15T00:33:35;4.82;;;4.43;;
47922;SDS011;33688;44.354;9.228;2023-02-15T00:36:02;4.65;;;4.25;;
47922;SDS011;33688;44.354;9.228;2023-02-15T00:38:30;5.03;;;4.55;;
47922;SDS011;33688;44.354;9.228;2023-02-15T00:40:57;5.10;;;4.20;;
47922;SDS011;33688;44.354;9.228;2023-02-15T00:43:25;5.10;;;3.80;;
47922;SDS011;33688;44.354;9.228;2023-02-15T00:45:52;4.28;;;3.72;;
47922;SDS011;33688;44.354;9.228;2023-02-15T00:48:18;4.63;;;4.13;;
47922;SDS011;33688;44.354;9.228;2023-02-15T00:50:45;4.63;;;3.90;;
47922;SDS011;33688;44.354;9.228;2023-02-15T00:53:15;5.25;;;4.47;;
47922;SDS011;33688;44.354;9.228;2023-02-15T00:55:42;5.55;;;3.80;;
47922;SDS011;33688;44.354;9.228;2023-02-15T00:58:09;4.57;;;4.15;;
47922;SDS011;33688;44.354;9.228;2023-02-15T01:00:36;4.70;;;4.20;;
47922;SDS011;33688;44.354;9.228;2023-02-15T01:03:02;5.72;;;4.03;;
47922;SDS011;33688;44.354;9.228;2023-02-15T01:05:29;4.75;;;3.95;;
47922;SDS011;33688;44.354;9.228;2023-02-15T01:07:55;4.47;;;3.97;;
47922;SDS011;33688;44.354;9.228;2023-02-15T01:10:22;4.45;;;3.90;;
47922;SDS011;33688;44.354;9.228;2023-02-15T01:12:49;4.25;;;3.85;;
47922;SDS011;33688;44.354;9.228;2023-02-15T01:15:16;4.63;;;4.10;;
47922;SDS011;33688;44.354;9.228;2023-02-15T01:17:42;3.72;;;3.40;;
47922;SDS011;33688;44.354;9.228;2023-02-15T01:20:11;4.00;;;3.50;;
47922;SDS011;33688;44.354;9.228;2023-02-15T01:22:37;4.47;;;3.80;;
47922;SDS011;33688;44.354;9.228;2023-02-15T01:25:03;4.78;;;4.03;;
47922;SDS011;33688;44.354;9.228;2023-02-15T01:27:29;4.88;;;4.32;;
47922;SDS011;33688;44.354;9.228;2023-02-15T01:29:57;4.53;;;4.13;;
47922;SDS011;33688;44.354;9.228;2023-02-15T01:32:23;4.78;;;4.05;;
47922;SDS011;33688;44.354;9.228;2023-02-15T01:34:49;4.35;;;3.90;;
47922;SDS011;33688;44.354;9.228;2023-02-15T01:37:15;3.75;;;3.45;;
47922;SDS011;33688;44.354;9.228;2023-02-15T01:39:40;3.92;;;3.60;;
47922;SDS011;33688;44.354;9.228;2023-02-15T01:42:20;3.80;;;3.50;;
47922;SDS011;33688;44.354;9.228;2023-02-15T01:44:51;3.92;;;3.55;;
47922;SDS011;33688;44.354;9.228;2023-02-15T01:47:35;4.97;;;4.15;;
47922;SDS011;33688;44.354;9.228;2023-02-15T01:52:31;5.32;;;4.22;;
47922;SDS011;33688;44.354;9.228;2023-02-15T01:54:59;4.22;;;3.78;;
47922;SDS011;33688;44.354;9.228;2023-02-15T01:57:25;4.15;;;3.75;;
47922;SDS011;33688;44.354;9.228;2023-02-15T01:59:53;8.02;;;4.15;;
47922;SDS011;33688;44.354;9.228;2023-02-15T02:02:24;3.65;;;3.35;;
47922;SDS011;33688;44.354;9.228;2023-02-15T02:04:53;4.30;;;3.85;;
47922;SDS011;33688;44.354;9.228;2023-02-15T02:07:27;4.07;;;3.67;;
47922;SDS011;33688;44.354;9.228;2023-02-15T02:09:58;3.67;;;3.38;;
47922;SDS011;33688;44.354;9.228;2023-02-15T02:12:28;4.03;;;3.60;;
47922;SDS011;33688;44.354;9.228;2023-02-15T02:14:53;3.92;;;3.42;;
47922;SDS011;33688;44.354;9.228;2023-02-15T02:17:43;3.90;;;3.50;;
47922;SDS011;33688;44.354;9.228;2023-02-15T02:32:11;4.05;;;3.65;;
47922;SDS011;33688;44.354;9.228;2023-02-15T02:35:27;4.30;;;3.67;;
47922;SDS011;33688;44.354;9.228;2023-02-15T02:41:00;4.10;;;3.63;;
47922;SDS011;33688;44.354;9.228;2023-02-15T02:43:51;4.20;;;3.80;;
47922;SDS011;33688;44.354;9.228;2023-02-15T02:46:32;4.10;;;3.70;;
47922;SDS011;33688;44.354;9.228;2023-02-15T02:49:09;4.82;;;3.60;;
47922;SDS011;33688;44.354;9.228;2023-02-15T02:51:35;3.88;;;3.58;;
47922;SDS011;33688;44.354;9.228;2023-02-15T02:54:02;3.70;;;3.30;;
47922;SDS011;33688;44.354;9.228;2023-02-15T02:56:33;5.00;;;3.90;;
47922;SDS011;33688;44.354;9.228;2023-02-15T03:01:40;4.50;;;4.10;;
47922;SDS011;33688;44.354;9.228;2023-02-15T03:04:15;3.65;;;3.35;;
47922;SDS011;33688;44.354;9.228;2023-02-15T03:07:00;3.80;;;3.50;;
47922;SDS011;33688;44.354;9.228;2023-02-15T03:09:33;3.80;;;3.40;;
47922;SDS011;33688;44.354;9.228;2023-02-15T03:12:08;4.20;;;3.40;;
47922;SDS011;33688;44.354;9.228;2023-02-15T03:15:02;3.90;;;3.47;;
47922;SDS011;33688;44.354;9.228;2023-02-15T03:17:38;4.95;;;3.70;;
47922;SDS011;33688;44.354;9.228;2023-02-15T03:20:16;3.65;;;3.20;;
47922;SDS011;33688;44.354;9.228;2023-02-15T03:23:04;4.22;;;3.83;;
47922;SDS011;33688;44.354;9.228;2023-02-15T03:25:46;3.90;;;3.50;;
47922;SDS011;33688;44.354;9.228;2023-02-15T03:28:22;3.47;;;3.15;;
47922;SDS011;33688;44.354;9.228;2023-02-15T03:30:56;3.65;;;3.30;;
47922;SDS011;33688;44.354;9.228;2023-02-15T03:33:26;3.90;;;3.53;;
47922;SDS011;33688;44.354;9.228;2023-02-15T03:39:10;3.42;;;3.13;;
47922;SDS011;33688;44.354;9.228;2023-02-15T03:45:02;3.47;;;3.17;;
47922;SDS011;33688;44.354;9.228;2023-02-15T03:47:35;3.88;;;3.40;;
47922;SDS011;33688;44.354;9.228;2023-02-15T03:50:13;3.95;;;3.60;;
47922;SDS011;33688;44.354;9.228;2023-02-15T03:53:05;4.03;;;3.63;;
47922;SDS011;33688;44.354;9.228;2023-02-15T03:55:35;3.90;;;3.42;;
47922;SDS011;33688;44.354;9.228;2023-02-15T03:58:01;3.42;;;3.13;;
47922;SDS011;33688;44.354;9.228;2023-02-15T04:01:00;3.90;;;3.50;;
47922;SDS011;33688;44.354;9.228;2023-02-15T04:04:09;3.80;;;3.25;;
47922;SDS011;33688;44.354;9.228;2023-02-15T04:06:47;4.28;;;3.88;;
47922;SDS011;33688;44.354;9.228;2023-02-15T04:09:13;3.30;;;3.00;;
47922;SDS011;33688;44.354;9.228;2023-02-15T04:11:57;3.45;;;3.10;;
47922;SDS011;33688;44.354;9.228;2023-02-15T04:14:23;4.10;;;3.70;;
47922;SDS011;33688;44.354;9.228;2023-02-15T04:17:07;3.75;;;3.40;;
47922;SDS011;33688;44.354;9.228;2023-02-15T04:19:34;3.97;;;3.60;;
47922;SDS011;33688;44.354;9.228;2023-02-15T04:22:19;3.25;;;2.95;;
47922;SDS011;33688;44.354;9.228;2023-02-15T04:25:03;3.15;;;2.85;;
47922;SDS011;33688;44.354;9.228;2023-02-15T04:27:36;3.53;;;3.08;;
47922;SDS011;33688;44.354;9.228;2023-02-15T04:30:03;3.03;;;2.80;;
47922;SDS011;33688;44.354;9.228;2023-02-15T04:32:30;3.42;;;3.13;;
47922;SDS011;33688;44.354;9.228;2023-02-15T04:34:56;3.13;;;2.83;;
47922;SDS011;33688;44.354;9.228;2023-02-15T04:37:22;3.60;;;3.10;;
47922;SDS011;33688;44.354;9.228;2023-02-15T04:39:48;4.00;;;3.60;;
47922;SDS011;33688;44.354;9.228;2023-02-15T04:42:15;4.22;;;3.70;;
47922;SDS011;33688;44.354;9.228;2023-02-15T04:44:41;4.00;;;3.58;;
47922;SDS011;33688;44.354;9.228;2023-02-15T04:47:07;2.85;;;2.65;;
47922;SDS011;33688;44.354;9.228;2023-02-15T04:49:32;3.45;;;3.15;;
47922;SDS011;33688;44.354;9.228;2023-02-15T04:51:58;3.55;;;3.15;;
47922;SDS011;33688;44.354;9.228;2023-02-15T04:54:23;4.22;;;3.38;;
47922;SDS011;33688;44.354;9.228;2023-02-15T04:56:49;3.42;;;3.13;;
47922;SDS011;33688;44.354;9.228;2023-02-15T04:59:15;3.72;;;3.42;;
47922;SDS011;33688;44.354;9.228;2023-02-15T05:01:41;3.33;;;3.08;;
47922;SDS011;33688;44.354;9.228;2023-02-15T05:04:06;3.75;;;3.38;;
47922;SDS011;33688;44.354;9.228;2023-02-15T05:06:32;3.35;;;3.05;;
47922;SDS011;33688;44.354;9.228;2023-02-15T05:08:58;3.72;;;3.22;;
47922;SDS011;33688;44.354;9.228;2023-02-15T05:11:24;3.30;;;3.00;;
47922;SDS011;33688;44.354;9.228;2023-02-15T05:13:51;3.20;;;2.90;;
47922;SDS011;33688;44.354;9.228;2023-02-15T05:16:17;3.40;;;3.10;;
47922;SDS011;33688;44.354;9.228;2023-02-15T05:18:42;3.70;;;3.13;;
47922;SDS011;33688;44.354;9.228;2023-02-15T05:21:08;3.17;;;2.88;;
47922;SDS011;33688;44.354;9.228;2023-02-15T05:23:34;3.20;;;2.90;;
47922;SDS011;33688;44.354;9.228;2023-02-15T05:26:00;3.92;;;3.55;;
47922;SDS011;33688;44.354;9.228;2023-02-15T05:28:45;2.55;;;2.28;;
47922;SDS011;33688;44.354;9.228;2023-02-15T05:31:12;3.67;;;3.38;;
47922;SDS011;33688;44.354;9.228;2023-02-15T05:33:41;3.85;;;3.30;;
47922;SDS011;33688;44.354;9.228;2023-02-15T05:36:08;3.63;;;3.33;;
47922;SDS011;33688;44.354;9.228;2023-02-15T05:38:34;3.10;;;2.90;;
47922;SDS011;33688;44.354;9.228;2023-02-15T05:41:07;5.45;;;2.90;;
47922;SDS011;33688;44.354;9.228;2023-02-15T05:43:35;3.28;;;2.97;;
47922;SDS011;33688;44.354;9.228;2023-02-15T05:46:02;4.38;;;3.20;;
47922;SDS011;33688;44.354;9.228;2023-02-15T05:48:28;3.20;;;2.90;;
47922;SDS011;33688;44.354;9.228;2023-02-15T05:50:58;3.53;;;3.22;;
47922;SDS011;33688;44.354;9.228;2023-02-15T05:53:36;3.33;;;3.03;;
47922;SDS011;33688;44.354;9.228;2023-02-15T05:56:05;3.33;;;3.03;;
47922;SDS011;33688;44.354;9.228;2023-02-15T05:58:34;3.38;;;3.00;;
47922;SDS011;33688;44.354;9.228;2023-02-15T06:01:09;3.10;;;2.80;;
47922;SDS011;33688;44.354;9.228;2023-02-15T06:03:39;3.03;;;2.75;;
47922;SDS011;33688;44.354;9.228;2023-02-15T06:06:06;3.33;;;3.03;;
47922;SDS011;33688;44.354;9.228;2023-02-15T06:08:32;2.50;;;2.30;;
47922;SDS011;33688;44.354;9.228;2023-02-15T06:11:00;3.40;;;3.05;;
47922;SDS011;33688;44.354;9.228;2023-02-15T06:13:26;3.33;;;3.03;;
47922;SDS011;33688;44.354;9.228;2023-02-15T06:15:52;3.15;;;2.78;;
47922;SDS011;33688;44.354;9.228;2023-02-15T06:18:18;3.10;;;2.80;;
47922;SDS011;33688;44.354;9.228;2023-02-15T06:20:46;3.58;;;2.97;;
47922;SDS011;33688;44.354;9.228;2023-02-15T06:23:13;3.25;;;2.88;;
47922;SDS011;33688;44.354;9.228;2023-02-15T06:25:38;3.67;;;2.92;;
47922;SDS011;33688;44.354;9.228;2023-02-15T06:28:04;2.55;;;2.35;;
47922;SDS011;33688;44.354;9.228;2023-02-15T06:30:30;3.00;;;2.70;;
47922;SDS011;33688;44.354;9.228;2023-02-15T06:32:56;3.35;;;3.05;;
47922;SDS011;33688;44.354;9.228;2023-02-15T06:35:22;3.22;;;2.92;;
47922;SDS011;33688;44.354;9.228;2023-02-15T06:37:48;3.35;;;2.90;;
47922;SDS011;33688;44.354;9.228;2023-02-15T06:40:14;3.22;;;2.83;;
47922;SDS011;33688;44.354;9.228;2023-02-15T06:42:43;3.00;;;2.70;;
47922;SDS011;33688;44.354;9.228;2023-02-15T06:45:09;3.10;;;2.80;;
47922;SDS011;33688;44.354;9.228;2023-02-15T06:47:36;2.80;;;2.60;;
47922;SDS011;33688;44.354;9.228;2023-02-15T06:50:02;5.63;;;3.15;;
47922;SDS011;33688;44.354;9.228;2023-02-15T06:52:30;2.75;;;2.47;;
47922;SDS011;33688;44.354;9.228;2023-02-15T06:54:55;3.05;;;2.75;;
47922;SDS011;33688;44.354;9.228;2023-02-15T06:57:21;2.50;;;2.30;;
47922;SDS011;33688;44.354;9.228;2023-02-15T06:59:47;3.20;;;2.90;;
47922;SDS011;33688;44.354;9.228;2023-02-15T07:02:13;3.08;;;2.78;;
47922;SDS011;33688;44.354;9.228;2023-02-15T07:04:39;3.63;;;2.95;;
47922;SDS011;33688;44.354;9.228;2023-02-15T07:07:07;3.17;;;2.80;;
47922;SDS011;33688;44.354;9.228;2023-02-15T07:09:35;3.70;;;3.10;;
47922;SDS011;33688;44.354;9.228;2023-02-15T07:12:01;2.35;;;2.15;;
47922;SDS011;33688;44.354;9.228;2023-02-15T07:14:48;3.13;;;2.83;;
47922;SDS011;33688;44.354;9.228;2023-02-15T07:17:14;3.30;;;2.90;;
47922;SDS011;33688;44.354;9.228;2023-02-15T07:19:40;3.47;;;2.75;;
47922;SDS011;33688;44.354;9.228;2023-02-15T07:22:05;3.58;;;3.28;;
47922;SDS011;33688;44.354;9.228;2023-02-15T07:24:31;4.65;;;3.30;;
47922;SDS011;33688;44.354;9.228;2023-02-15T07:27:02;4.57;;;3.72;;
47922;SDS011;33688;44.354;9.228;2023-02-15T07:29:33;5.50;;;4.43;;
47922;SDS011;33688;44.354;9.228;2023-02-15T07:32:01;5.45;;;4.95;;
47922;SDS011;33688;44.354;9.228;2023-02-15T07:34:26;7.32;;;5.38;;
47922;SDS011;33688;44.354;9.228;2023-02-15T07:36:54;7.57;;;6.00;;
47922;SDS011;33688;44.354;9.228;2023-02-15T07:39:23;9.90;;;5.80;;
47922;SDS011;33688;44.354;9.228;2023-02-15T07:41:48;6.90;;;5.85;;
47922;SDS011;33688;44.354;9.228;2023-02-15T07:44:18;7.30;;;5.57;;
47922;SDS011;33688;44.354;9.228;2023-02-15T07:46:45;9.13;;;6.32;;
47922;SDS011;33688;44.354;9.228;2023-02-15T07:49:12;7.63;;;5.72;;
47922;SDS011;33688;44.354;9.228;2023-02-15T07:51:38;6.30;;;5.30;;
47922;SDS011;33688;44.354;9.228;2023-02-15T07:54:06;7.07;;;5.95;;
47922;SDS011;33688;44.354;9.228;2023-02-15T07:56:32;9.77;;;6.35;;
47922;SDS011;33688;44.354;9.228;2023-02-15T07:58:59;7.10;;;5.47;;
47922;SDS011;33688;44.354;9.228;2023-02-15T08:01:34;8.13;;;5.65;;
47922;SDS011;33688;44.354;9.228;2023-02-15T08:04:04;8.32;;;6.13;;
47922;SDS011;33688;44.354;9.228;2023-02-15T08:06:35;9.57;;;5.95;;
47922;SDS011;33688;44.354;9.228;2023-02-15T08:09:06;8.02;;;6.40;;
47922;SDS011;33688;44.354;9.228;2023-02-15T08:11:34;7.53;;;6.25;;
47922;SDS011;33688;44.354;9.228;2023-02-15T08:14:08;11.07;;;6.63;;
47922;SDS011;33688;44.354;9.228;2023-02-15T08:16:52;8.68;;;6.47;;
47922;SDS011;33688;44.354;9.228;2023-02-15T08:19:25;8.02;;;6.60;;
47922;SDS011;33688;44.354;9.228;2023-02-15T08:21:57;8.90;;;6.38;;
47922;SDS011;33688;44.354;9.228;2023-02-15T08:24:31;7.22;;;5.85;;
47922;SDS011;33688;44.354;9.228;2023-02-15T08:27:06;8.13;;;6.70;;
47922;SDS011;33688;44.354;9.228;2023-02-15T08:29:35;8.95;;;7.07;;
47922;SDS011;33688;44.354;9.228;2023-02-15T08:32:04;9.57;;;7.68;;
47922;SDS011;33688;44.354;9.228;2023-02-15T08:34:35;8.77;;;5.90;;
47922;SDS011;33688;44.354;9.228;2023-02-15T08:37:04;9.90;;;7.18;;
47922;SDS011;33688;44.354;9.228;2023-02-15T08:39:31;12.45;;;7.03;;
47922;SDS011;33688;44.354;9.228;2023-02-15T08:41:57;9.77;;;6.85;;
47922;SDS011;33688;44.354;9.228;2023-02-15T08:44:23;10.73;;;7.28;;
47922;SDS011;33688;44.354;9.228;2023-02-15T08:46:49;12.02;;;7.25;;
47922;SDS011;33688;44.354;9.228;2023-02-15T08:49:16;9.10;;;7.07;;
47922;SDS011;33688;44.354;9.228;2023-02-15T08:51:45;8.85;;;7.32;;
47922;SDS011;33688;44.354;9.228;2023-02-15T08:54:15;11.52;;;6.70;;
47922;SDS011;33688;44.354;9.228;2023-02-15T08:56:44;9.35;;;7.10;;
47922;SDS011;33688;44.354;9.228;2023-02-15T08:59:12;9.65;;;7.28;;
47922;SDS011;33688;44.354;9.228;2023-02-15T09:01:49;10.50;;;8.50;;
47922;SDS011;33688;44.354;9.228;2023-02-15T09:04:16;9.50;;;7.47;;
47922;SDS011;33688;44.354;9.228;2023-02-15T09:06:43;10.10;;;6.82;;
47922;SDS011;33688;44.354;9.228;2023-02-15T09:09:10;10.95;;;7.82;;
47922;SDS011;33688;44.354;9.228;2023-02-15T09:11:41;14.38;;;8.18;;
47922;SDS011;33688;44.354;9.228;2023-02-15T09:14:13;8.60;;;7.47;;
47922;SDS011;33688;44.354;9.228;2023-02-15T09:16:45;10.25;;;7.88;;
47922;SDS011;33688;44.354;9.228;2023-02-15T09:19:14;9.55;;;7.55;;
47922;SDS011;33688;44.354;9.228;2023-02-15T09:21:44;9.77;;;7.15;;
47922;SDS011;33688;44.354;9.228;2023-02-15T09:24:11;11.07;;;7.75;;
47922;SDS011;33688;44.354;9.228;2023-02-15T09:26:40;9.65;;;7.35;;
47922;SDS011;33688;44.354;9.228;2023-02-15T09:29:09;9.43;;;7.47;;
47922;SDS011;33688;44.354;9.228;2023-02-15T09:31:37;12.82;;;8.15;;
47922;SDS011;33688;44.354;9.228;2023-02-15T09:34:12;10.43;;;7.40;;
47922;SDS011;33688;44.354;9.228;2023-02-15T09:36:41;9.32;;;7.88;;
47922;SDS011;33688;44.354;9.228;2023-02-15T09:39:09;9.02;;;6.65;;
47922;SDS011;33688;44.354;9.228;2023-02-15T09:48:17;11.85;;;7.85;;
47922;SDS011;33688;44.354;9.228;2023-02-15T09:51:18;9.90;;;7.93;;
47922;SDS011;33688;44.354;9.228;2023-02-15T09:54:03;10.43;;;7.37;;
47922;SDS011;33688;44.354;9.228;2023-02-15T10:20:13;12.00;;;8.70;;
47922;SDS011;33688;44.354;9.228;2023-02-15T10:23:13;9.43;;;7.20;;
47922;SDS011;33688;44.354;9.228;2023-02-15T10:28:43;10.20;;;7.53;;
47922;SDS011;33688;44.354;9.228;2023-02-15T10:31:18;9.77;;;7.95;;
47922;SDS011;33688;44.354;9.228;2023-02-15T10:45:25;10.05;;;7.10;;
47922;SDS011;33688;44.354;9.228;2023-02-15T10:57:23;10.40;;;7.65;;
47922;SDS011;33688;44.354;9.228;2023-02-15T11:00:07;11.25;;;7.38;;
47922;SDS011;33688;44.354;9.228;2023-02-15T11:03:40;8.57;;;6.65;;
47922;SDS011;33688;44.354;9.228;2023-02-15T11:06:39;8.70;;;7.03;;
47922;SDS011;33688;44.354;9.228;2023-02-15T11:09:16;10.60;;;6.65;;
47922;SDS011;33688;44.354;9.228;2023-02-15T11:11:50;8.32;;;6.60;;
47922;SDS011;33688;44.354;9.228;2023-02-15T11:14:39;11.32;;;6.60;;
47922;SDS011;33688;44.354;9.228;2023-02-15T11:17:19;9.60;;;6.75;;
47922;SDS011;33688;44.354;9.228;2023-02-15T11:23:15;7.65;;;5.55;;
47922;SDS011;33688;44.354;9.228;2023-02-15T11:25:47;7.45;;;6.45;;
47922;SDS011;33688;44.354;9.228;2023-02-15T11:28:22;9.00;;;6.55;;
47922;SDS011;33688;44.354;9.228;2023-02-15T11:31:18;8.20;;;6.65;;
47922;SDS011;33688;44.354;9.228;2023-02-15T11:33:50;9.63;;;6.93;;
47922;SDS011;33688;44.354;9.228;2023-02-15T11:36:34;8.13;;;6.80;;
47922;SDS011;33688;44.354;9.228;2023-02-15T11:39:09;10.27;;;6.75;;
47922;SDS011;33688;44.354;9.228;2023-02-15T11:41:41;10.75;;;6.38;;
47922;SDS011;33688;44.354;9.228;2023-02-15T11:44:21;7.18;;;5.65;;
47922;SDS011;33688;44.354;9.228;2023-02-15T11:46:49;6.70;;;6.00;;
47922;SDS011;33688;44.354;9.228;2023-02-15T11:49:21;8.00;;;6.13;;
47922;SDS011;33688;44.354;9.228;2023-02-15T11:51:56;9.50;;;6.70;;
47922;SDS011;33688;44.354;9.228;2023-02-15T11:54:26;11.55;;;6.88;;
47922;SDS011;33688;44.354;9.228;2023-02-15T11:57:17;7.07;;;5.93;;
47922;SDS011;33688;44.354;9.228;2023-02-15T12:03:07;7.18;;;6.20;;
47922;SDS011;33688;44.354;9.228;2023-02-15T12:06:01;10.65;;;7.18;;
47922;SDS011;33688;44.354;9.228;2023-02-15T12:08:39;9.48;;;6.03;;
47922;SDS011;33688;44.354;9.228;2023-02-15T12:11:11;8.30;;;5.93;;
47922;SDS011;33688;44.354;9.228;2023-02-15T12:14:02;16.88;;;6.40;;
47922;SDS011;33688;44.354;9.228;2023-02-15T12:16:39;8.02;;;5.93;;
47922;SDS011;33688;44.354;9.228;2023-02-15T12:19:28;7.50;;;6.20;;
47922;SDS011;33688;44.354;9.228;2023-02-15T12:21:58;6.63;;;5.38;;
47922;SDS011;33688;44.354;9.228;2023-02-15T12:24:28;7.70;;;5.95;;
47922;SDS011;33688;44.354;9.228;2023-02-15T12:27:01;7.80;;;6.47;;
47922;SDS011;33688;44.354;9.228;2023-02-15T12:29:32;7.15;;;6.07;;
47922;SDS011;33688;44.354;9.228;2023-02-15T12:32:09;7.05;;;6.25;;
47922;SDS011;33688;44.354;9.228;2023-02-15T12:34:44;7.68;;;6.05;;
47922;SDS011;33688;44.354;9.228;2023-02-15T12:37:32;9.00;;;5.88;;
47922;SDS011;33688;44.354;9.228;2023-02-15T12:40:00;7.90;;;6.22;;
47922;SDS011;33688;44.354;9.228;2023-02-15T12:42:44;7.72;;;6.47;;
47922;SDS011;33688;44.354;9.228;2023-02-15T12:48:08;7.88;;;5.30;;
47922;SDS011;33688;44.354;9.228;2023-02-15T12:50:39;11.05;;;6.50;;
47922;SDS011;33688;44.354;9.228;2023-02-15T12:53:11;7.75;;;6.05;;
47922;SDS011;33688;44.354;9.228;2023-02-15T12:56:00;7.60;;;6.07;;
47922;SDS011;33688;44.354;9.228;2023-02-15T12:58:29;7.57;;;5.93;;
47922;SDS011;33688;44.354;9.228;2023-02-15T13:01:02;6.78;;;5.35;;
47922;SDS011;33688;44.354;9.228;2023-02-15T13:04:05;8.02;;;5.75;;
47922;SDS011;33688;44.354;9.228;2023-02-15T13:06:52;8.00;;;5.28;;
47922;SDS011;33688;44.354;9.228;2023-02-15T13:09:34;7.60;;;5.57;;
47922;SDS011;33688;44.354;9.228;2023-02-15T13:14:56;10.10;;;5.63;;
47922;SDS011;33688;44.354;9.228;2023-02-15T13:17:28;7.28;;;5.75;;
47922;SDS011;33688;44.354;9.228;2023-02-15T13:19:59;7.97;;;6.20;;
47922;SDS011;33688;44.354;9.228;2023-02-15T13:22:42;7.47;;;6.00;;
47922;SDS011;33688;44.354;9.228;2023-02-15T13:25:22;5.78;;;5.18;;
47922;SDS011;33688;44.354;9.228;2023-02-15T13:27:52;7.13;;;6.15;;
47922;SDS011;33688;44.354;9.228;2023-02-15T13:30:36;7.50;;;5.78;;
47922;SDS011;33688;44.354;9.228;2023-02-15T13:35:48;7.50;;;5.88;;
47922;SDS011;33688;44.354;9.228;2023-02-15T13:38:40;6.50;;;5.47;;
47922;SDS011;33688;44.354;9.228;2023-02-15T13:44:21;6.53;;;5.88;;
47922;SDS011;33688;44.354;9.228;2023-02-15T13:47:17;7.32;;;5.68;;
47922;SDS011;33688;44.354;9.228;2023-02-15T13:53:19;6.32;;;5.35;;
47922;SDS011;33688;44.354;9.228;2023-02-15T13:56:07;6.63;;;5.68;;
47922;SDS011;33688;44.354;9.228;2023-02-15T14:17:24;6.90;;;4.85;;
47922;SDS011;33688;44.354;9.228;2023-02-15T14:25:59;7.13;;;5.82;;
47922;SDS011;33688;44.354;9.228;2023-02-15T14:28:47;6.63;;;5.82;;
47922;SDS011;33688;44.354;9.228;2023-02-15T14:31:22;6.10;;;4.95;;
47922;SDS011;33688;44.354;9.228;2023-02-15T14:34:00;6.32;;;5.40;;
47922;SDS011;33688;44.354;9.228;2023-02-15T14:36:26;6.80;;;5.88;;
47922;SDS011;33688;44.354;9.228;2023-02-15T14:41:53;5.72;;;5.03;;
47922;SDS011;33688;44.354;9.228;2023-02-15T14:44:32;6.85;;;5.35;;
47922;SDS011;33688;44.354;9.228;2023-02-15T14:47:07;6.07;;;5.25;;
47922;SDS011;33688;44.354;9.228;2023-02-15T14:49:51;5.82;;;4.80;;
47922;SDS011;33688;44.354;9.228;2023-02-15T14:52:17;7.30;;;4.88;;
47922;SDS011;33688;44.354;9.228;2023-02-15T14:59:40;6.55;;;5.72;;
47922;SDS011;33688;44.354;9.228;2023-02-15T15:05:11;5.65;;;5.05;;
47922;SDS011;33688;44.354;9.228;2023-02-15T15:07:50;5.97;;;5.38;;
47922;SDS011;33688;44.354;9.228;2023-02-15T15:12:46;6.70;;;5.30;;
47922;SDS011;33688;44.354;9.228;2023-02-15T15:17:56;6.13;;;5.30;;
47922;SDS011;33688;44.354;9.228;2023-02-15T15:25:50;6.53;;;4.93;;
47922;SDS011;33688;44.354;9.228;2023-02-15T15:31:01;6.93;;;5.43;;
47922;SDS011;33688;44.354;9.228;2023-02-15T15:34:53;5.45;;;4.72;;
47922;SDS011;33688;44.354;9.228;2023-02-15T15:40:11;5.63;;;4.55;;
47922;SDS011;33688;44.354;9.228;2023-02-15T15:43:10;6.53;;;4.68;;
47922;SDS011;33688;44.354;9.228;2023-02-15T15:49:08;5.20;;;4.47;;
47922;SDS011;33688;44.354;9.228;2023-02-15T15:51:40;9.50;;;5.70;;
47922;SDS011;33688;44.354;9.228;2023-02-15T15:54:12;6.22;;;4.70;;
47922;SDS011;33688;44.354;9.228;2023-02-15T15:56:47;5.53;;;5.03;;
47922;SDS011;33688;44.354;9.228;2023-02-15T15:59:23;8.93;;;4.57;;
47922;SDS011;33688;44.354;9.228;2023-02-15T16:01:50;5.43;;;4.88;;
47922;SDS011;33688;44.354;9.228;2023-02-15T16:04:24;6.22;;;5.50;;
47922;SDS011;33688;44.354;9.228;2023-02-15T16:07:41;5.32;;;4.40;;
47922;SDS011;33688;44.354;9.228;2023-02-15T16:09:58;5.32;;;4.50;;
47922;SDS011;33688;44.354;9.228;2023-02-15T16:12:27;4.80;;;4.25;;
47922;SDS011;33688;44.354;9.228;2023-02-15T16:15:00;5.80;;;4.55;;
47922;SDS011;33688;44.354;9.228;2023-02-15T16:17:38;4.78;;;4.25;;
47922;SDS011;33688;44.354;9.228;2023-02-15T16:20:20;5.60;;;5.00;;
47922;SDS011;33688;44.354;9.228;2023-02-15T16:22:49;5.80;;;5.13;;
47922;SDS011;33688;44.354;9.228;2023-02-15T16:25:31;4.95;;;4.32;;
47922;SDS011;33688;44.354;9.228;2023-02-15T16:31:34;6.50;;;5.47;;
47922;SDS011;33688;44.354;9.228;2023-02-15T16:33:40;4.95;;;4.45;;
47922;SDS011;33688;44.354;9.228;2023-02-15T16:36:12;6.00;;;4.60;;
47922;SDS011;33688;44.354;9.228;2023-02-15T16:41:11;5.65;;;4.35;;
47922;SDS011;33688;44.354;9.228;2023-02-15T16:43:38;5.45;;;4.53;;
47922;SDS011;33688;44.354;9.228;2023-02-15T16:46:10;5.38;;;4.60;;
47922;SDS011;33688;44.354;9.228;2023-02-15T16:48:53;5.38;;;4.32;;
47922;SDS011;33688;44.354;9.228;2023-02-15T16:51:27;4.85;;;4.32;;
47922;SDS011;33688;44.354;9.228;2023-02-15T16:53:56;5.65;;;5.05;;
47922;SDS011;33688;44.354;9.228;2023-02-15T16:56:30;4.90;;;4.30;;
47922;SDS011;33688;44.354;9.228;2023-02-15T16:58:56;6.22;;;4.57;;
47922;SDS011;33688;44.354;9.228;2023-02-15T17:01:27;5.07;;;4.10;;
47922;SDS011;33688;44.354;9.228;2023-02-15T17:06:57;5.30;;;4.10;;
47922;SDS011;33688;44.354;9.228;2023-02-15T17:09:32;4.65;;;3.75;;
47922;SDS011;33688;44.354;9.228;2023-02-15T17:11:58;4.93;;;3.97;;
47922;SDS011;33688;44.354;9.228;2023-02-15T17:14:28;7.88;;;4.50;;
47922;SDS011;33688;44.354;9.228;2023-02-15T17:17:10;6.68;;;4.03;;
47922;SDS011;33688;44.354;9.228;2023-02-15T17:19:49;4.32;;;3.92;;
47922;SDS011;33688;44.354;9.228;2023-02-15T17:22:22;4.63;;;4.07;;
47922;SDS011;33688;44.354;9.228;2023-02-15T17:24:59;4.20;;;3.80;;
47922;SDS011;33688;44.354;9.228;2023-02-15T17:27:27;4.55;;;3.88;;
47922;SDS011;33688;44.354;9.228;2023-02-15T17:29:56;4.30;;;3.90;;
47922;SDS011;33688;44.354;9.228;2023-02-15T17:32:26;4.60;;;3.95;;
47922;SDS011;33688;44.354;9.228;2023-02-15T17:40:42;4.07;;;3.67;;
47922;SDS011;33688;44.354;9.228;2023-02-15T17:43:08;3.45;;;3.15;;
47922;SDS011;33688;44.354;9.228;2023-02-15T17:45:56;4.20;;;3.60;;
47922;SDS011;33688;44.354;9.228;2023-02-15T17:48:23;3.80;;;3.50;;
47922;SDS011;33688;44.354;9.228;2023-02-15T17:50:56;4.18;;;3.78;;
47922;SDS011;33688;44.354;9.228;2023-02-15T17:53:23;5.47;;;4.40;;
47922;SDS011;33688;44.354;9.228;2023-02-15T17:55:50;5.10;;;4.10;;
47922;SDS011;33688;44.354;9.228;2023-02-15T17:58:17;3.97;;;3.67;;
47922;SDS011;33688;44.354;9.228;2023-02-15T18:00:45;3.97;;;3.55;;
47922;SDS011;33688;44.354;9.228;2023-02-15T18:03:45;3.95;;;3.65;;
47922;SDS011;33688;44.354;9.228;2023-02-15T18:06:36;5.05;;;3.65;;
47922;SDS011;33688;44.354;9.228;2023-02-15T18:09:23;4.32;;;3.85;;
47922;SDS011;33688;44.354;9.228;2023-02-15T18:12:26;3.58;;;3.28;;